Time;durP1;ratioP1;P1;durP2;ratioP2;P2;SDS_P1;SDS_P2;PMS_P1;PMS_P2;Temp;Humidity;BMP_temperature;BMP_pressure;BME280_temperature;BME280_humidity;BME280_pressure;Samples;Min_cycle;Max_cycle;Signal;HPM_P1;HPM_P2
2022/12/30 00:00:12;;;;;;;25.98;4.07;;;6.10;99.90;;;;;;5110057;28;20127;-73
2022/12/30 00:02:38;;;;;;;25.88;3.50;;;6.10;99.90;;;;;;5101310;28;20074;-74
2022/12/30 00:05:04;;;;;;;24.80;3.63;;;6.10;99.90;;;;;;5005148;28;20062;-76
2022/12/30 00:07:30;;;;;;;25.20;3.38;;;6.00;99.90;;;;;;5005633;28;20060;-73
2022/12/30 00:09:55;;;;;;;23.33;3.33;;;6.00;99.90;;;;;;5007387;28;20050;-74
2022/12/30 00:34:26;;;;;;;19.33;3.45;;;6.00;99.90;;;;;;5008184;28;20085;-75
2022/12/30 00:36:52;;;;;;;21.00;3.47;;;5.90;99.90;;;;;;4992009;28;20058;-79
2022/12/30 00:39:18;;;;;;;25.27;3.47;;;6.20;99.90;;;;;;5009740;28;20056;-79
2022/12/30 00:44:28;;;;;;;23.40;3.78;;;5.80;99.90;;;;;;5008848;28;20489;-80
2022/12/30 00:46:55;;;;;;;21.05;3.13;;;5.80;99.90;;;;;;5008984;28;20052;-75
2022/12/30 00:57:33;;;;;;;22.98;3.38;;;5.60;99.90;;;;;;5009520;28;20054;-75
2022/12/30 00:59:59;;;;;;;26.25;3.33;;;5.60;99.90;;;;;;5009335;28;20049;-76
2022/12/30 01:02:24;;;;;;;28.08;4.25;;;5.60;99.90;;;;;;5009468;28;20049;-74
2022/12/30 01:04:50;;;;;;;28.27;4.20;;;5.60;99.90;;;;;;5009500;28;20060;-72
2022/12/30 01:07:16;;;;;;;25.20;3.80;;;5.60;99.90;;;;;;5008103;28;20058;-75
2022/12/30 01:09:41;;;;;;;23.23;3.25;;;5.50;99.90;;;;;;5007537;28;20175;-76
2022/12/30 01:12:07;;;;;;;19.50;3.00;;;5.50;99.90;;;;;;5008229;28;20121;-74
2022/12/30 01:14:45;;;;;;;26.60;4.68;;;5.50;99.90;;;;;;5007602;28;20054;-74
2022/12/30 01:17:17;;;;;;;29.42;4.47;;;5.40;99.90;;;;;;5009236;28;20046;-77
2022/12/30 01:19:43;;;;;;;22.55;3.10;;;5.50;99.90;;;;;;5007655;28;20053;-76
2022/12/30 01:22:09;;;;;;;31.38;3.72;;;5.40;99.90;;;;;;5008550;28;20062;-78
2022/12/30 01:24:35;;;;;;;28.00;3.42;;;5.40;99.90;;;;;;5009003;28;20049;-78
2022/12/30 01:27:01;;;;;;;26.08;4.05;;;5.40;99.90;;;;;;5006590;28;20042;-76
2022/12/30 01:29:38;;;;;;;22.92;3.60;;;6.50;99.90;;;;;;5007480;28;20107;-79
2022/12/30 01:32:07;;;;;;;25.83;3.80;;;5.40;99.90;;;;;;5102937;28;20394;-80
2022/12/30 01:34:33;;;;;;;22.70;3.25;;;5.40;99.90;;;;;;5111959;28;20165;-76
2022/12/30 01:36:59;;;;;;;26.83;3.70;;;5.40;99.90;;;;;;5112349;28;20050;-76
2022/12/30 01:39:25;;;;;;;16.17;2.92;;;5.40;99.90;;;;;;5112232;28;20043;-80
2022/12/30 01:41:53;;;;;;;23.33;3.45;;;5.40;99.90;;;;;;5029812;28;20053;-79
2022/12/30 01:44:59;;;;;;;29.88;3.25;;;5.40;99.90;;;;;;5008650;28;20051;-83
2022/12/30 01:47:43;;;;;;;31.25;3.30;;;5.50;99.90;;;;;;5007071;28;20403;-76
2022/12/30 01:50:09;;;;;;;25.13;4.03;;;5.40;99.90;;;;;;5008639;28;20435;-75
2022/12/30 01:52:37;;;;;;;22.75;3.38;;;5.50;99.90;;;;;;5008465;28;20054;-76
2022/12/30 01:55:09;;;;;;;32.67;3.63;;;5.50;99.90;;;;;;5007910;28;20120;-79
2022/12/30 01:57:39;;;;;;;24.77;3.58;;;5.50;99.90;;;;;;5007954;28;20518;-77
2022/12/30 02:00:07;;;;;;;24.77;4.18;;;5.70;99.90;;;;;;5008533;28;20046;-76
2022/12/30 02:02:33;;;;;;;26.55;3.35;;;5.50;99.90;;;;;;5006846;28;20469;-82
2022/12/30 02:05:01;;;;;;;22.92;3.58;;;5.50;99.90;;;;;;5008102;28;20116;-73
2022/12/30 02:07:33;;;;;;;29.45;3.65;;;5.60;99.90;;;;;;5008171;28;20094;-80
2022/12/30 02:09:59;;;;;;;25.13;3.63;;;5.60;99.90;;;;;;5005720;28;20054;-81
2022/12/30 02:12:25;;;;;;;17.92;3.22;;;5.60;99.90;;;;;;5008050;28;20103;-79
2022/12/30 02:14:53;;;;;;;25.00;3.63;;;5.60;99.90;;;;;;5008319;28;20049;-78
2022/12/30 02:17:26;;;;;;;23.45;3.20;;;5.60;99.90;;;;;;5006628;28;20073;-81
2022/12/30 02:20:17;;;;;;;26.52;3.95;;;5.60;99.90;;;;;;5006558;28;20054;-78
2022/12/30 02:23:03;;;;;;;24.58;2.65;;;5.60;99.90;;;;;;5006384;28;20127;-81
2022/12/30 02:25:40;;;;;;;22.10;3.28;;;5.60;99.90;;;;;;5007706;28;20057;-82
2022/12/30 02:28:32;;;;;;;23.67;3.45;;;5.60;99.90;;;;;;5007399;28;20046;-71
2022/12/30 02:31:18;;;;;;;24.88;3.65;;;5.60;99.90;;;;;;5008053;28;20042;-76
2022/12/30 02:34:05;;;;;;;20.73;2.95;;;5.50;99.90;;;;;;5007933;28;20081;-76
2022/12/30 02:36:53;;;;;;;24.77;3.13;;;5.50;99.90;;;;;;5008166;28;20487;-78
2022/12/30 02:39:43;;;;;;;25.85;4.47;;;5.50;99.90;;;;;;5007400;28;20404;-75
2022/12/30 02:45:31;;;;;;;30.42;3.85;;;5.50;99.90;;;;;;5005402;28;20061;-82
2022/12/30 02:48:03;;;;;;;27.98;3.28;;;5.40;99.90;;;;;;5007460;28;20140;-80
2022/12/30 02:53:21;;;;;;;26.77;3.10;;;5.50;99.90;;;;;;4988656;28;20382;-78
2022/12/30 02:55:48;;;;;;;22.20;3.63;;;5.40;99.90;;;;;;4987490;28;20125;-74
2022/12/30 02:58:14;;;;;;;21.67;3.35;;;5.40;99.90;;;;;;5004647;28;20050;-77
2022/12/30 03:04:19;;;;;;;25.60;3.85;;;5.40;99.90;;;;;;5045320;28;20476;-75
2022/12/30 03:07:14;;;;;;;23.63;3.70;;;5.80;99.90;;;;;;4996777;28;20046;-81
2022/12/30 03:09:42;;;;;;;18.58;2.80;;;5.40;99.90;;;;;;5007412;28;20045;-79
2022/12/30 03:12:28;;;;;;;21.13;3.15;;;5.40;99.90;;;;;;5006336;28;20050;-81
2022/12/30 03:15:07;;;;;;;25.02;3.28;;;5.30;99.90;;;;;;5005571;28;20049;-75
2022/12/30 03:17:38;;;;;;;26.00;3.70;;;5.30;99.90;;;;;;5006867;28;20048;-77
2022/12/30 03:20:08;;;;;;;23.67;3.03;;;5.30;99.90;;;;;;5005997;28;20537;-76
2022/12/30 03:28:08;;;;;;;25.77;3.55;;;5.20;99.90;;;;;;5006865;28;20077;-75
2022/12/30 03:30:39;;;;;;;23.85;3.78;;;5.20;99.90;;;;;;5022938;28;20447;-79
2022/12/30 03:33:05;;;;;;;26.67;3.38;;;5.20;99.90;;;;;;5022877;28;20377;-79
2022/12/30 03:35:35;;;;;;;22.70;3.13;;;5.20;99.90;;;;;;5007200;28;20401;-76
2022/12/30 03:38:02;;;;;;;22.27;3.50;;;5.20;99.90;;;;;;5005244;28;20116;-77
2022/12/30 03:40:36;;;;;;;31.52;4.15;;;5.10;99.90;;;;;;5006564;28;20038;-75
2022/12/30 03:43:03;;;;;;;21.92;3.08;;;5.10;99.90;;;;;;4992019;28;20412;-82
2022/12/30 03:45:28;;;;;;;25.08;3.80;;;5.10;99.90;;;;;;5006852;28;20515;-80
2022/12/30 03:47:54;;;;;;;22.38;3.17;;;5.00;99.90;;;;;;5006919;28;20041;-81
2022/12/30 03:50:20;;;;;;;18.65;3.00;;;5.00;99.90;;;;;;5005328;28;20567;-80
2022/12/30 03:52:45;;;;;;;24.45;3.35;;;5.60;99.90;;;;;;5005344;28;20049;-77
2022/12/30 03:55:11;;;;;;;31.08;3.47;;;5.00;99.90;;;;;;5007247;28;20373;-80
2022/12/30 03:57:37;;;;;;;28.90;4.38;;;5.00;99.90;;;;;;4995720;28;20093;-76
2022/12/30 04:00:06;;;;;;;22.67;3.83;;;5.00;99.90;;;;;;4986138;28;20061;-76
2022/12/30 04:02:32;;;;;;;18.85;3.05;;;4.90;99.90;;;;;;4986706;28;20054;-77
2022/12/30 04:04:57;;;;;;;21.15;3.53;;;4.90;99.90;;;;;;4989465;28;20057;-78
2022/12/30 04:07:23;;;;;;;20.15;3.92;;;4.90;99.90;;;;;;4995651;28;20125;-79
2022/12/30 04:09:48;;;;;;;17.23;3.28;;;4.90;99.90;;;;;;5009583;28;20056;-81
2022/12/30 04:12:14;;;;;;;20.42;3.28;;;5.70;99.90;;;;;;5010387;28;20507;-75
2022/12/30 04:14:40;;;;;;;17.88;3.33;;;4.80;99.90;;;;;;5008974;28;20049;-80
2022/12/30 04:17:05;;;;;;;22.02;3.45;;;4.80;99.90;;;;;;5009265;28;20091;-77
2022/12/30 04:19:31;;;;;;;17.35;2.95;;;4.80;99.90;;;;;;5010106;28;20107;-78
2022/12/30 04:21:56;;;;;;;18.08;2.97;;;4.80;99.90;;;;;;5010099;28;20046;-79
2022/12/30 04:24:22;;;;;;;14.32;3.10;;;4.80;99.90;;;;;;5009900;28;20046;-75
2022/12/30 04:26:48;;;;;;;22.15;4.45;;;4.80;99.90;;;;;;5009937;28;20038;-78
2022/12/30 04:29:13;;;;;;;20.13;3.03;;;4.90;99.90;;;;;;5009924;28;20077;-76
2022/12/30 04:31:39;;;;;;;19.02;3.22;;;4.90;99.90;;;;;;5098535;28;20050;-79
2022/12/30 04:34:05;;;;;;;16.45;2.92;;;4.90;99.90;;;;;;5026238;28;20072;-76
2022/12/30 04:36:30;;;;;;;22.60;3.00;;;4.90;99.90;;;;;;5009832;28;20050;-76
2022/12/30 04:38:56;;;;;;;20.20;3.10;;;4.90;99.90;;;;;;5009854;28;20038;-76
2022/12/30 04:41:21;;;;;;;23.92;3.15;;;4.90;99.90;;;;;;5008416;28;20061;-78
2022/12/30 04:43:47;;;;;;;21.05;2.90;;;5.00;99.90;;;;;;5009446;28;20042;-77
2022/12/30 04:46:13;;;;;;;22.98;3.10;;;4.80;99.90;;;;;;5010919;28;20052;-77
2022/12/30 04:48:39;;;;;;;24.20;3.33;;;4.90;99.90;;;;;;5112830;28;20044;-79
2022/12/30 04:51:05;;;;;;;17.02;3.78;;;4.80;99.90;;;;;;5112010;28;20051;-75
2022/12/30 04:53:31;;;;;;;14.90;2.90;;;4.90;99.90;;;;;;5112836;28;20039;-76
2022/12/30 04:55:57;;;;;;;23.67;3.60;;;4.90;99.90;;;;;;5058458;28;20419;-80
2022/12/30 04:58:23;;;;;;;24.33;3.17;;;4.90;99.90;;;;;;5009874;28;20393;-77
2022/12/30 05:00:50;;;;;;;17.15;3.22;;;4.90;99.90;;;;;;5009283;28;20045;-80
2022/12/30 05:03:17;;;;;;;19.92;3.65;;;4.90;99.90;;;;;;5009756;28;20053;-76
2022/12/30 05:05:43;;;;;;;22.88;3.67;;;4.90;99.90;;;;;;5009378;28;20049;-80
2022/12/30 05:08:09;;;;;;;17.42;3.92;;;4.90;99.90;;;;;;5008655;28;20129;-82
2022/12/30 05:10:39;;;;;;;23.67;3.55;;;4.90;99.90;;;;;;5009271;28;20134;-75
2022/12/30 05:13:05;;;;;;;19.23;4.63;;;4.90;99.90;;;;;;5009317;28;20070;-76
2022/12/30 05:15:31;;;;;;;21.38;4.05;;;4.90;99.90;;;;;;5007474;28;20045;-75
2022/12/30 05:17:57;;;;;;;16.83;4.30;;;5.00;99.90;;;;;;5009590;28;20041;-81
2022/12/30 05:20:23;;;;;;;28.25;4.97;;;5.00;99.90;;;;;;5009314;28;20041;-76
2022/12/30 05:22:49;;;;;;;26.80;6.05;;;5.00;99.90;;;;;;5007476;28;20053;-78
2022/12/30 05:27:59;;;;;;;27.90;6.40;;;5.00;99.90;;;;;;5009564;28;20050;-77
2022/12/30 05:30:25;;;;;;;23.98;5.72;;;5.50;99.90;;;;;;5055529;28;20050;-77
2022/12/30 05:32:51;;;;;;;19.52;6.13;;;5.10;99.90;;;;;;5111417;28;20509;-81
2022/12/30 05:35:17;;;;;;;19.90;5.40;;;5.00;99.90;;;;;;5112310;28;20044;-79
2022/12/30 05:37:42;;;;;;;20.65;5.32;;;5.00;99.90;;;;;;5111846;28;20051;-80
2022/12/30 05:40:09;;;;;;;20.08;5.05;;;5.10;99.90;;;;;;5046046;28;20049;-76
2022/12/30 05:42:35;;;;;;;18.65;4.90;;;5.00;99.90;;;;;;5008885;28;20049;-77
2022/12/30 05:45:01;;;;;;;21.98;5.35;;;5.00;99.90;;;;;;5008473;28;20050;-79
2022/12/30 05:47:27;;;;;;;22.33;6.03;;;5.80;99.90;;;;;;5007664;28;20041;-81
2022/12/30 05:49:52;;;;;;;16.30;5.78;;;5.10;99.90;;;;;;5008735;28;20427;-75
2022/12/30 05:52:18;;;;;;;20.73;5.78;;;5.70;99.90;;;;;;5007377;28;20092;-76
2022/12/30 05:54:44;;;;;;;24.58;5.50;;;5.80;99.90;;;;;;5007120;28;20505;-80
2022/12/30 05:57:09;;;;;;;23.15;5.22;;;5.50;99.90;;;;;;5007295;28;20778;-83
2022/12/30 05:59:35;;;;;;;23.25;5.40;;;5.00;99.90;;;;;;5007507;28;20050;-78
2022/12/30 06:02:01;;;;;;;13.20;4.85;;;4.90;99.90;;;;;;5008627;28;20481;-75
2022/12/30 06:04:27;;;;;;;22.88;4.72;;;4.90;99.90;;;;;;5007187;28;20456;-81
2022/12/30 06:06:52;;;;;;;19.48;5.28;;;5.20;99.90;;;;;;5007662;28;20049;-79
2022/12/30 06:09:18;;;;;;;21.52;4.45;;;4.80;99.90;;;;;;5008300;28;20481;-78
2022/12/30 06:11:44;;;;;;;16.60;4.03;;;4.80;99.90;;;;;;5092995;28;20124;-79
2022/12/30 06:14:12;;;;;;;21.27;3.22;;;4.70;99.90;;;;;;5007857;28;20041;-82
2022/12/30 06:16:37;;;;;;;20.83;4.22;;;5.30;99.90;;;;;;5008393;28;20061;-75
2022/12/30 06:19:03;;;;;;;23.20;4.13;;;4.70;99.90;;;;;;5008340;28;20050;-78
2022/12/30 06:21:29;;;;;;;25.20;4.32;;;4.70;99.90;;;;;;5007784;28;20053;-78
2022/12/30 06:23:54;;;;;;;15.68;3.35;;;4.70;99.90;;;;;;5006181;28;20072;-81
2022/12/30 06:26:20;;;;;;;25.80;5.13;;;4.60;99.90;;;;;;5005676;28;20061;-78
2022/12/30 06:28:46;;;;;;;19.00;3.72;;;4.60;99.90;;;;;;5008157;28;20409;-75
2022/12/30 06:31:12;;;;;;;16.17;3.30;;;4.60;99.90;;;;;;5008211;28;20076;-79
2022/12/30 06:33:37;;;;;;;21.20;4.35;;;4.60;99.90;;;;;;5006905;28;20045;-81
2022/12/30 06:36:03;;;;;;;13.70;3.33;;;4.60;99.90;;;;;;5007739;28;20060;-76
2022/12/30 06:38:29;;;;;;;20.38;3.53;;;4.60;99.90;;;;;;5007872;28;20037;-80
2022/12/30 06:40:55;;;;;;;17.88;3.80;;;4.60;99.90;;;;;;5008285;28;20515;-77
2022/12/30 06:43:20;;;;;;;19.50;3.15;;;4.60;99.90;;;;;;5006887;28;20468;-76
2022/12/30 06:45:46;;;;;;;14.32;3.63;;;4.50;99.90;;;;;;5007975;28;20049;-80
2022/12/30 06:48:12;;;;;;;21.23;3.83;;;4.50;99.90;;;;;;5007888;28;20096;-79
2022/12/30 06:50:38;;;;;;;16.95;2.90;;;4.50;99.90;;;;;;5006373;28;20092;-82
2022/12/30 06:53:04;;;;;;;15.75;3.30;;;4.50;99.90;;;;;;5006358;28;20084;-76
2022/12/30 06:55:30;;;;;;;24.88;3.50;;;4.50;99.90;;;;;;5007506;28;20103;-76
2022/12/30 06:57:56;;;;;;;19.15;4.72;;;4.50;99.90;;;;;;5007942;28;20140;-78
2022/12/30 07:00:22;;;;;;;15.07;3.13;;;4.40;99.90;;;;;;5007739;28;20149;-80
2022/12/30 07:02:48;;;;;;;16.58;2.88;;;4.50;99.90;;;;;;5007468;28;20497;-80
2022/12/30 07:05:14;;;;;;;19.05;3.25;;;4.40;99.90;;;;;;4989165;28;20068;-78
2022/12/30 07:07:39;;;;;;;14.18;2.85;;;4.40;99.90;;;;;;5006412;28;20054;-81
2022/12/30 07:10:05;;;;;;;18.25;3.03;;;4.40;99.90;;;;;;5006108;28;20050;-76
2022/12/30 07:12:31;;;;;;;20.48;2.92;;;4.40;99.90;;;;;;5006808;28;20374;-80
2022/12/30 07:14:57;;;;;;;16.27;3.17;;;4.40;99.90;;;;;;5006302;28;20098;-77
2022/12/30 07:17:22;;;;;;;16.55;3.17;;;4.40;99.90;;;;;;5007474;28;20085;-81
2022/12/30 07:19:48;;;;;;;18.02;2.92;;;5.00;99.90;;;;;;5007591;28;20159;-76
2022/12/30 07:22:15;;;;;;;17.13;3.05;;;4.40;99.90;;;;;;5007400;28;20106;-78
2022/12/30 07:24:42;;;;;;;18.95;3.33;;;4.40;99.90;;;;;;5007479;28;20196;-78
2022/12/30 07:27:10;;;;;;;18.27;2.47;;;4.30;99.90;;;;;;5005805;28;20057;-76
2022/12/30 07:29:36;;;;;;;13.95;2.60;;;4.40;99.90;;;;;;5007356;28;20061;-77
2022/12/30 07:32:02;;;;;;;16.50;3.10;;;4.30;99.90;;;;;;5007335;28;20038;-76
2022/12/30 07:34:27;;;;;;;22.00;3.53;;;4.30;99.90;;;;;;5007689;28;20054;-78
2022/12/30 07:36:53;;;;;;;16.30;2.72;;;4.40;99.90;;;;;;5007159;28;20511;-81
2022/12/30 07:39:19;;;;;;;15.65;2.95;;;4.40;99.90;;;;;;5009870;28;20151;-78
2022/12/30 07:41:44;;;;;;;11.55;2.40;;;4.70;99.90;;;;;;5008325;28;20396;-78
2022/12/30 07:44:10;;;;;;;18.02;3.22;;;4.40;99.90;;;;;;5010040;28;20046;-78
2022/12/30 07:46:36;;;;;;;16.10;2.63;;;4.40;99.90;;;;;;5044746;28;20047;-80
2022/12/30 07:49:02;;;;;;;16.85;2.92;;;4.40;99.90;;;;;;5042277;28;20058;-76
2022/12/30 07:51:28;;;;;;;16.63;2.70;;;4.40;99.90;;;;;;5002640;28;20382;-75
2022/12/30 07:53:53;;;;;;;13.70;2.83;;;4.40;99.90;;;;;;5005495;28;20058;-78
2022/12/30 07:56:19;;;;;;;20.73;3.33;;;4.40;99.90;;;;;;5010075;28;20056;-83
2022/12/30 07:58:45;;;;;;;12.77;2.10;;;5.00;99.90;;;;;;5010717;28;20131;-76
2022/12/30 08:01:12;;;;;;;17.90;2.60;;;4.40;99.90;;;;;;5010054;28;20052;-76
2022/12/30 08:03:40;;;;;;;15.07;2.95;;;4.40;99.90;;;;;;5008747;28;20136;-78
2022/12/30 08:06:14;;;;;;;13.80;2.78;;;4.40;99.90;;;;;;5010251;28;20128;-77
2022/12/30 08:08:41;;;;;;;16.67;3.47;;;4.40;99.90;;;;;;5009675;28;20132;-71
2022/12/30 08:11:08;;;;;;;17.27;2.55;;;4.40;99.90;;;;;;5010130;28;20049;-81
2022/12/30 08:13:36;;;;;;;22.02;3.00;;;4.40;99.90;;;;;;5010647;28;20050;-81
2022/12/30 08:16:10;;;;;;;17.63;2.70;;;4.60;99.90;;;;;;5009941;28;20086;-75
2022/12/30 08:18:36;;;;;;;10.68;2.70;;;5.40;99.90;;;;;;5010412;28;20046;-78
2022/12/30 08:21:05;;;;;;;15.00;2.95;;;4.40;99.90;;;;;;5008685;28;20046;-76
2022/12/30 08:23:31;;;;;;;21.83;3.08;;;4.40;99.90;;;;;;5009662;28;20076;-80
2022/12/30 08:26:04;;;;;;;17.48;3.65;;;4.40;99.90;;;;;;5009688;28;20056;-75
2022/12/30 08:28:29;;;;;;;20.35;3.00;;;4.40;99.90;;;;;;5009503;28;20133;-74
2022/12/30 08:30:55;;;;;;;15.35;2.95;;;4.50;99.90;;;;;;5009261;28;20125;-72
2022/12/30 08:33:21;;;;;;;19.42;3.00;;;4.50;99.90;;;;;;5009785;28;20397;-75
2022/12/30 08:35:46;;;;;;;16.25;3.05;;;4.50;99.90;;;;;;5008573;28;20060;-78
2022/12/30 08:38:12;;;;;;;13.13;2.90;;;5.10;99.90;;;;;;5009226;28;20044;-79
2022/12/30 08:40:38;;;;;;;20.30;3.10;;;4.50;99.90;;;;;;5009472;28;20046;-76
2022/12/30 08:43:03;;;;;;;24.00;3.17;;;4.50;99.90;;;;;;5009382;28;20049;-78
2022/12/30 08:45:29;;;;;;;19.02;3.67;;;4.50;99.90;;;;;;5009736;28;20084;-77
2022/12/30 08:47:55;;;;;;;22.20;3.45;;;4.50;99.90;;;;;;4998148;28;20047;-79
2022/12/30 08:50:20;;;;;;;19.80;2.65;;;4.90;99.90;;;;;;4987701;28;20104;-75
2022/12/30 08:52:46;;;;;;;21.70;3.05;;;4.50;99.90;;;;;;4989798;28;20050;-77
2022/12/30 08:55:12;;;;;;;17.48;3.22;;;4.60;99.90;;;;;;4990523;28;20061;-78
2022/12/30 08:57:38;;;;;;;14.13;3.15;;;4.60;99.90;;;;;;5094445;28;20096;-77
2022/12/30 09:00:05;;;;;;;26.77;3.58;;;4.60;99.90;;;;;;5009424;28;20099;-79
2022/12/30 09:02:33;;;;;;;29.10;4.00;;;4.60;99.90;;;;;;5009388;28;20053;-82
2022/12/30 09:04:59;;;;;;;17.42;3.55;;;4.60;99.90;;;;;;5009996;28;20045;-74
2022/12/30 09:07:24;;;;;;;19.48;3.20;;;4.60;99.90;;;;;;5009768;28;20053;-78
2022/12/30 09:09:50;;;;;;;16.63;3.05;;;4.70;99.90;;;;;;5094067;28;20052;-74
2022/12/30 09:12:17;;;;;;;13.88;2.13;;;4.70;99.90;;;;;;5009602;28;20046;-72
2022/12/30 09:14:43;;;;;;;20.35;4.15;;;4.70;99.90;;;;;;5007680;28;20559;-78
2022/12/30 09:17:08;;;;;;;15.15;2.75;;;4.70;99.90;;;;;;4996762;28;20161;-75
2022/12/30 09:19:34;;;;;;;19.13;3.13;;;4.80;99.90;;;;;;4998074;28;20084;-75
2022/12/30 09:22:00;;;;;;;16.05;2.78;;;4.80;99.90;;;;;;5001714;28;20049;-77
2022/12/30 09:24:27;;;;;;;16.35;3.33;;;4.80;99.90;;;;;;5009541;28;20089;-75
2022/12/30 09:26:52;;;;;;;13.27;2.67;;;4.50;99.90;;;;;;5022418;28;20412;-74
2022/12/30 09:29:18;;;;;;;13.10;2.55;;;4.90;99.90;;;;;;5009045;28;20052;-75
2022/12/30 09:31:44;;;;;;;20.65;3.78;;;4.90;99.90;;;;;;5008638;28;20077;-76
2022/12/30 09:34:11;;;;;;;11.25;2.55;;;4.90;99.90;;;;;;5007749;28;20068;-75
2022/12/30 09:36:36;;;;;;;14.95;3.03;;;5.00;99.90;;;;;;5022885;28;20046;-75
2022/12/30 09:39:02;;;;;;;12.70;2.72;;;5.00;99.90;;;;;;5008437;28;20129;-77
2022/12/30 09:44:53;;;;;;;19.77;2.85;;;5.10;99.90;;;;;;5001081;28;20085;-76
2022/12/30 09:47:27;;;;;;;15.90;3.13;;;5.80;99.90;;;;;;5006827;28;20050;-74
2022/12/30 09:49:59;;;;;;;17.63;2.70;;;5.10;99.90;;;;;;4989303;28;20431;-79
2022/12/30 09:52:48;;;;;;;16.30;3.47;;;5.20;99.90;;;;;;4988337;28;20449;-75
2022/12/30 09:55:19;;;;;;;20.38;3.03;;;5.20;99.90;;;;;;4947803;29;20105;-75
2022/12/30 09:57:52;;;;;;;14.68;2.95;;;5.30;99.90;;;;;;4947664;28;20097;-76
2022/12/30 10:00:20;;;;;;;14.25;2.75;;;5.30;99.90;;;;;;4930220;28;20055;-77
2022/12/30 10:02:46;;;;;;;13.70;2.53;;;5.30;99.90;;;;;;4946889;29;20047;-75
2022/12/30 10:05:13;;;;;;;9.88;2.05;;;5.40;99.90;;;;;;4952310;28;20058;-75
2022/12/30 10:07:55;;;;;;;18.35;2.97;;;5.40;99.90;;;;;;4947214;28;20062;-75
2022/12/30 10:10:23;;;;;;;20.58;3.13;;;5.40;99.90;;;;;;4948170;29;20062;-75
2022/12/30 10:12:56;;;;;;;13.23;2.47;;;5.50;99.90;;;;;;4932536;28;20059;-76
2022/12/30 10:15:40;;;;;;;9.95;2.33;;;5.50;99.90;;;;;;4931748;29;20063;-76
2022/12/30 10:18:41;;;;;;;14.27;3.25;;;5.60;99.90;;;;;;4947361;28;20525;-74
2022/12/30 10:21:28;;;;;;;12.60;2.47;;;5.60;99.90;;;;;;4956460;28;20057;-74
2022/12/30 10:24:14;;;;;;;14.13;2.33;;;5.70;99.90;;;;;;4890283;29;20067;-77
2022/12/30 10:26:45;;;;;;;;;;;5.70;99.90;;;;;;4875479;29;20061;-79
2022/12/30 10:29:37;;;;;;;21.75;2.92;;;5.80;99.90;;;;;;4890567;29;19982;-79
2022/12/30 10:32:21;;;;;;;15.43;2.90;;;5.80;99.90;;;;;;4891582;29;20110;-76
2022/12/30 10:34:58;;;;;;;9.50;2.33;;;6.20;99.90;;;;;;4929044;28;20376;-74
2022/12/30 10:37:42;;;;;;;11.60;2.75;;;5.90;99.90;;;;;;4946979;29;20062;-77
2022/12/30 10:40:09;;;;;;;13.55;2.08;;;6.00;99.90;;;;;;4931601;29;20047;-76
2022/12/30 10:42:57;;;;;;;10.63;1.92;;;6.00;99.90;;;;;;4931390;28;20564;-78
2022/12/30 10:45:32;;;;;;;8.85;1.95;;;6.10;99.90;;;;;;4930461;29;20150;-76
2022/12/30 10:48:16;;;;;;;8.98;2.08;;;6.10;99.90;;;;;;4946086;29;20051;-73
2022/12/30 10:50:46;;;;;;;11.13;2.13;;;6.10;99.90;;;;;;4928049;29;20064;-73
2022/12/30 10:53:18;;;;;;;10.73;2.00;;;6.20;99.90;;;;;;4912004;29;20094;-73
2022/12/30 10:55:50;;;;;;;11.82;2.40;;;6.20;99.90;;;;;;4937749;28;20126;-73
2022/12/30 10:58:31;;;;;;;9.93;2.80;;;6.30;99.90;;;;;;4968890;28;20073;-75
2022/12/30 11:00:59;;;;;;;12.27;1.70;;;6.30;99.90;;;;;;4968189;28;20059;-78
2022/12/30 11:03:31;;;;;;;12.57;2.17;;;6.30;99.90;;;;;;4966947;28;20047;-78
2022/12/30 11:06:21;;;;;;;9.40;1.88;;;6.30;99.90;;;;;;4967482;28;20082;-76
2022/12/30 11:08:47;;;;;;;7.88;1.50;;;6.40;99.90;;;;;;4968558;28;20054;-77
2022/12/30 11:11:14;;;;;;;9.10;2.00;;;6.40;99.90;;;;;;4968666;28;20282;-82
2022/12/30 11:16:30;;;;;;;8.20;1.98;;;6.40;99.90;;;;;;4966291;28;20050;-74
2022/12/30 11:18:58;;;;;;;7.25;1.83;;;6.50;99.90;;;;;;5031547;28;20045;-74
2022/12/30 11:21:28;;;;;;;11.40;1.50;;;6.40;99.90;;;;;;5069275;28;20051;-77
2022/12/30 11:23:56;;;;;;;8.25;1.67;;;6.50;99.90;;;;;;5101266;28;20048;-75
2022/12/30 11:26:23;;;;;;;10.00;1.60;;;6.50;99.90;;;;;;5064423;28;20058;-74
2022/12/30 11:28:55;;;;;;;9.90;1.95;;;6.50;99.90;;;;;;5006591;28;20038;-76
2022/12/30 11:31:21;;;;;;;7.82;1.35;;;6.50;99.90;;;;;;5006001;28;20104;-76
2022/12/30 11:33:49;;;;;;;7.20;1.45;;;6.60;99.90;;;;;;5007896;28;20556;-80
2022/12/30 11:36:27;;;;;;;9.82;1.83;;;7.30;99.90;;;;;;4995032;28;20514;-74
2022/12/30 11:38:54;;;;;;;12.80;1.50;;;6.60;99.90;;;;;;4986428;28;20046;-77
2022/12/30 11:41:28;;;;;;;10.27;1.70;;;6.70;99.90;;;;;;4986327;28;20520;-78
2022/12/30 11:44:00;;;;;;;9.52;1.50;;;6.70;99.90;;;;;;4986782;28;20099;-78
2022/12/30 11:46:50;;;;;;;6.40;1.63;;;6.70;99.90;;;;;;4993826;28;20041;-77
2022/12/30 11:49:55;;;;;;;6.93;1.67;;;6.80;99.90;;;;;;4987815;28;20043;-74
2022/12/30 11:52:24;;;;;;;6.90;1.45;;;6.80;99.90;;;;;;4987784;28;20045;-76
2022/12/30 11:55:04;;;;;;;4.78;1.30;;;6.80;99.90;;;;;;4999472;28;20118;-76
2022/12/30 11:57:42;;;;;;;10.18;1.50;;;7.30;99.90;;;;;;5007641;28;20046;-76
2022/12/30 12:00:16;;;;;;;13.27;2.08;;;6.90;99.90;;;;;;5006667;28;20099;-73
2022/12/30 12:02:48;;;;;;;8.30;1.40;;;6.90;99.90;;;;;;5006413;28;20053;-74
2022/12/30 12:05:39;;;;;;;8.10;1.48;;;6.90;99.90;;;;;;5006041;28;20054;-74
2022/12/30 12:08:24;;;;;;;6.47;1.48;;;6.90;99.90;;;;;;5023884;28;20129;-74
2022/12/30 12:11:09;;;;;;;5.78;1.25;;;7.00;99.90;;;;;;4991350;28;20046;-80
2022/12/30 12:13:49;;;;;;;7.07;1.70;;;7.00;99.90;;;;;;4997336;28;20089;-75
2022/12/30 12:16:25;;;;;;;7.43;1.45;;;7.00;99.90;;;;;;5007488;28;20595;-78
2022/12/30 12:18:58;;;;;;;7.13;1.42;;;7.10;99.90;;;;;;5004235;28;20124;-75
2022/12/30 12:21:29;;;;;;;7.10;1.30;;;7.10;99.90;;;;;;5004471;28;20050;-76
2022/12/30 12:24:03;;;;;;;7.63;1.23;;;7.20;99.90;;;;;;5007153;28;20058;-77
2022/12/30 12:26:38;;;;;;;7.07;1.75;;;7.20;99.90;;;;;;4994164;28;20066;-73
2022/12/30 12:29:04;;;;;;;7.15;1.55;;;7.20;99.90;;;;;;4990594;28;20054;-74
2022/12/30 12:32:00;;;;;;;7.53;1.58;;;7.30;99.90;;;;;;4990991;28;20057;-71
2022/12/30 12:34:44;;;;;;;5.90;1.35;;;7.20;99.90;;;;;;4994165;28;20042;-72
2022/12/30 12:37:30;;;;;;;7.30;1.50;;;7.30;99.90;;;;;;5112211;28;20687;-72
2022/12/30 12:40:14;;;;;;;4.57;1.20;;;7.30;99.90;;;;;;5001216;28;20046;-73
2022/12/30 12:42:49;;;;;;;5.70;1.17;;;7.30;99.90;;;;;;4989191;28;20054;-70
2022/12/30 12:45:33;;;;;;;4.65;0.93;;;7.60;99.90;;;;;;4990070;28;20143;-71
2022/12/30 12:48:20;;;;;;;7.68;1.30;;;7.40;99.90;;;;;;4990269;28;20061;-74
2022/12/30 12:51:10;;;;;;;6.63;1.83;;;7.40;99.90;;;;;;4989396;28;20050;-74
2022/12/30 12:54:15;;;;;;;9.68;1.50;;;7.40;99.90;;;;;;4988004;28;20469;-75
2022/12/30 12:57:03;;;;;;;8.32;1.15;;;7.50;99.90;;;;;;4989952;28;20046;-72
2022/12/30 13:00:09;;;;;;;4.85;0.90;;;7.50;99.90;;;;;;4988042;28;20191;-70
2022/12/30 13:03:13;;;;;;;10.68;1.17;;;7.50;99.90;;;;;;4992874;28;20063;-72
2022/12/30 13:05:55;;;;;;;10.05;1.40;;;7.50;99.90;;;;;;4989384;28;20050;-79
2022/12/30 13:08:24;;;;;;;5.85;1.30;;;7.60;99.90;;;;;;4998312;28;20058;-72
2022/12/30 13:11:17;;;;;;;7.70;1.40;;;7.60;99.90;;;;;;5006306;28;20046;-73
2022/12/30 13:14:02;;;;;;;9.88;1.10;;;7.50;99.90;;;;;;5009079;28;20049;-74
2022/12/30 13:16:42;;;;;;;;;;;8.10;99.90;;;;;;5009017;28;20050;-74
2022/12/30 13:19:17;;;;;;;5.90;1.52;;;7.60;99.90;;;;;;5008287;28;19925;-82
2022/12/30 13:21:44;;;;;;;;;;;8.20;99.90;;;;;;5008520;28;20125;-74
2022/12/30 13:24:32;;;;;;;10.20;1.50;;;7.80;99.90;;;;;;5008380;28;19975;-76
2022/12/30 13:26:58;;;;;;;5.57;1.30;;;7.70;99.90;;;;;;5005676;28;20072;-74
2022/12/30 13:29:33;;;;;;;5.45;1.50;;;7.70;99.90;;;;;;5008742;28;20050;-79
2022/12/30 13:32:36;;;;;;;8.38;1.33;;;7.80;99.90;;;;;;5008372;28;20054;-78
2022/12/30 13:35:38;;;;;;;10.80;1.50;;;7.80;99.90;;;;;;4966264;28;20138;-72
2022/12/30 13:38:28;;;;;;;7.72;1.42;;;7.80;99.90;;;;;;4952289;28;20190;-74
2022/12/30 13:41:06;;;;;;;7.63;1.30;;;7.80;99.90;;;;;;4950692;28;20063;-73
2022/12/30 13:43:42;;;;;;;8.88;1.38;;;7.90;99.90;;;;;;4967089;28;20053;-72
2022/12/30 13:46:18;;;;;;;5.28;1.70;;;8.10;99.90;;;;;;4967164;28;20069;-75
2022/12/30 13:48:56;;;;;;;8.68;1.85;;;7.90;99.90;;;;;;4966660;28;20051;-74
2022/12/30 13:51:25;;;;;;;7.78;1.35;;;8.00;99.90;;;;;;4964500;28;20097;-73
2022/12/30 13:53:56;;;;;;;11.05;1.17;;;8.00;99.90;;;;;;4978059;28;20089;-77
2022/12/30 13:56:43;;;;;;;8.73;1.50;;;8.00;99.90;;;;;;4969969;28;20051;-76
2022/12/30 13:59:29;;;;;;;8.38;1.33;;;8.20;99.90;;;;;;4986447;28;20078;-74
2022/12/30 14:02:16;;;;;;;8.45;1.67;;;8.10;99.90;;;;;;4968761;28;20089;-74
2022/12/30 14:04:50;;;;;;;7.97;1.52;;;8.10;99.90;;;;;;4950391;28;20057;-75
2022/12/30 14:07:39;;;;;;;6.32;1.20;;;8.10;99.90;;;;;;4950687;28;20136;-74